Vestal, NY (13850)

11:12 PM EDT on April 01, 2015 (GMT -0400)
Glenwood Road | | Change Station
CLOSE
Current Station
Personal Weather Station
Location: Vestal, NY
Elevation: 1017 ft
Nearby Weather Stations

Elev 1017 ft 42.06 °N, 76.04 °W | Updated 11 minutes ago

Clear
Clear
27.0 °F
Feels Like 27 °F
N
1.0
Wind Variable Wind from SSE
Gusts 1.0 mph

Today
High -- | Low -- °F
--% Chance of Precip.
Yesterday
High -- | Low -- °F
Precip. -- in
6:47 AM 7:29 PM
Waxing Gibbous, 95% visible
Pressure 30.18 in
Visibility 10.0 miles
Clouds Clear
Windchill 27 °F
Dew Point 21 °F
Humidity 79%
Rainfall 0.02 in
Snow Depth Not available.
UV 0 out of 12
Pollen 4.00 out of 12
Air Quality Not available.
Flu Activity Not available.
METAR KBGM 020253Z 15004KT 10SM CLR 00/M11 A3013 RMK AO2 SLP219 T00001111 51003 $

More Conditions Fewer Conditions

Pressure 30.18 in
Visibility 10.0 miles
Clouds Clear
Windchill 27 °F
Dew Point 21 °F
Humidity 79%
Rainfall 0.02 in
Snow Depth Not available.
UV 0 out of 12
Pollen 4.00 out of 12
Air Quality Not available.
Flu Activity Not available.
METAR KBGM 020253Z 15004KT 10SM CLR 00/M11 A3013 RMK AO2 SLP219 T00001111 51003 $

More Conditions Fewer Conditions

10-Day Weather Forecast

Almanac

Astronomy

Apr. 01, 2015 Rise Set
Actual Time
Civil Twilight
Nautical Twilight
Astronomical Twilight
Moon
Length of Visible Light
Length of Day
Tomorrow will be .
, % of the Moon is Illuminated

Today's Extremes

State Highs State Lows

Community

WunderPhotos

Upload Photos

1,810,179 photos uploaded!

WunderBlogs® & News

Nearby

Air Quality

  Air Quality AQ Index Pollutant
Not available.

Snow Depth

Station Depth Elevation

Earthquake Activity

City Distance Mag. Time & Date
Minimum magnitude displayed is 2.5.

Coastal Water Temperatures

Place Temperature

Stations

Nearby Weather Stations

Station Location Temp. Windchill Dew Point Humidity Wind Precip. Elev Updated Type